Time;durP1;ratioP1;P1;durP2;ratioP2;P2;SDS_P1;SDS_P2;PMS_P1;PMS_P2;Temp;Humidity;BMP_temperature;BMP_pressure;BME280_temperature;BME280_humidity;BME280_pressure;Samples;Min_cycle;Max_cycle;Signal;HPM_P1;HPM_P2
2021/09/03 00:00:33;;;;;;;0.38;0.38;;;;;;;17.55;61.42;102557.22;5044212;28;20594;-90
2021/09/03 00:03:00;;;;;;;0.10;0.10;;;;;;;17.53;61.71;102548.31;5037983;28;20037;-95
2021/09/03 00:05:26;;;;;;;0.30;0.30;;;;;;;17.52;60.89;102543.88;5052384;28;20032;-94
2021/09/03 00:07:52;;;;;;;0.00;0.00;;;;;;;17.51;61.22;102545.69;5055941;28;20029;-92
2021/09/03 00:10:21;;;;;;;0.03;0.03;;;;;;;17.49;61.81;102552.00;5040640;28;20567;-93
2021/09/03 00:12:48;;;;;;;0.00;0.00;;;;;;;17.50;61.33;102540.38;5038728;28;20129;-86
2021/09/03 00:15:16;;;;;;;0.40;0.40;;;;;;;17.48;61.64;102539.50;5033386;28;20033;-95
2021/09/03 00:17:43;;;;;;;0.32;0.32;;;;;;;17.46;61.08;102542.22;5019585;28;20040;-87
2021/09/03 00:20:11;;;;;;;2.33;0.65;;;;;;;17.45;60.88;102541.31;5024980;28;20040;-95
2021/09/03 00:22:38;;;;;;;0.08;0.08;;;;;;;17.39;61.71;102533.41;5034748;28;20087;-94
2021/09/03 00:25:06;;;;;;;0.20;0.20;;;;;;;17.39;62.11;102530.75;5029167;28;20429;-93
2021/09/03 00:27:34;;;;;;;0.30;0.28;;;;;;;17.40;61.52;102534.31;5025235;28;20029;-93
2021/09/03 00:30:00;;;;;;;0.60;0.43;;;;;;;17.39;61.53;102529.88;5027032;28;20128;-94
2021/09/03 00:32:27;;;;;;;0.20;0.20;;;;;;;17.37;61.79;102526.34;5025119;28;20030;-94
2021/09/03 00:34:54;;;;;;;0.10;0.10;;;;;;;17.37;61.44;102531.69;5034662;28;20476;-93
2021/09/03 00:37:20;;;;;;;0.00;0.00;;;;;;;17.34;62.10;102531.78;5035771;28;20074;-92
2021/09/03 00:39:47;;;;;;;0.00;0.00;;;;;;;17.35;61.39;102534.41;5032383;28;20447;-95
2021/09/03 00:42:15;;;;;;;0.65;0.65;;;;;;;17.32;62.04;102523.78;5022219;28;20469;-94
2021/09/03 00:44:45;;;;;;;0.10;0.10;;;;;;;17.32;61.17;102533.59;5035000;28;20469;-95
2021/09/03 00:47:12;;;;;;;0.20;0.20;;;;;;;17.29;61.64;102519.34;5031474;28;20056;-95
2021/09/03 00:49:38;;;;;;;0.17;0.17;;;;;;;17.28;61.67;102516.69;5032745;28;20018;-93
2021/09/03 00:52:07;;;;;;;0.32;0.32;;;;;;;17.28;61.68;102516.69;5035714;28;20036;-96
2021/09/03 00:54:34;;;;;;;0.00;0.00;;;;;;;17.25;61.29;102511.41;5032589;28;20112;-93
2021/09/03 00:57:01;;;;;;;0.10;0.10;;;;;;;17.25;61.67;102512.28;5024630;28;20353;-95
2021/09/03 00:59:28;;;;;;;0.55;0.55;;;;;;;17.20;62.11;102513.31;5032273;28;20030;-94
2021/09/03 01:01:55;;;;;;;0.10;0.10;;;;;;;17.21;61.73;102513.28;5029585;28;20432;-93
2021/09/03 01:04:26;;;;;;;0.80;0.80;;;;;;;17.20;62.45;102514.19;5022451;28;20040;-91
2021/09/03 01:06:52;;;;;;;0.10;0.10;;;;;;;17.18;62.01;102505.28;5025823;28;20030;-88
2021/09/03 01:09:19;;;;;;;0.08;0.08;;;;;;;17.18;61.81;102504.44;5022473;28;20033;-91
2021/09/03 01:11:45;;;;;;;0.10;0.10;;;;;;;17.16;62.63;102506.25;5030282;28;20479;-95
2021/09/03 01:14:12;;;;;;;0.10;0.10;;;;;;;17.14;63.30;102504.47;5035143;28;20420;-91
2021/09/03 01:16:39;;;;;;;0.05;0.05;;;;;;;17.14;61.89;102504.47;5016422;28;20112;-96
2021/09/03 01:19:06;;;;;;;0.17;0.17;;;;;;;17.12;62.28;102506.31;5016555;28;20057;-96
2021/09/03 01:21:33;;;;;;;0.30;0.30;;;;;;;17.03;63.04;102498.47;5016450;28;20026;-96
2021/09/03 01:23:59;;;;;;;0.10;0.10;;;;;;;17.10;62.21;102497.44;5016496;28;20038;-96
2021/09/03 01:26:26;;;;;;;6.10;1.67;;;;;;;17.11;61.97;102492.97;5018135;28;20034;-96
2021/09/03 01:28:52;;;;;;;2.30;0.63;;;;;;;17.11;62.50;102495.66;5031706;28;20512;-95
2021/09/03 01:31:20;;;;;;;0.30;0.30;;;;;;;17.10;62.47;102492.06;5036077;28;20048;-96
2021/09/03 01:33:48;;;;;;;0.10;0.10;;;;;;;17.06;62.50;102495.75;5035616;28;20026;-96
2021/09/03 01:36:14;;;;;;;0.50;0.50;;;;;;;17.09;62.31;102490.31;5036105;28;20508;-94
2021/09/03 01:38:42;;;;;;;0.10;0.10;;;;;;;17.08;62.78;102491.22;5034760;28;20484;-95
2021/09/03 01:41:09;;;;;;;0.10;0.10;;;;;;;17.05;62.61;102493.97;5035834;28;20037;-94
2021/09/03 01:43:36;;;;;;;0.10;0.10;;;;;;;17.03;63.20;102489.56;5035331;28;20025;-96
2021/09/03 01:46:05;;;;;;;0.20;0.20;;;;;;;17.04;62.18;102489.53;5035575;28;20498;-96
2021/09/03 01:48:34;;;;;;;1.98;1.48;;;;;;;17.03;62.69;102485.06;5022087;28;20033;-96
2021/09/03 01:51:00;;;;;;;0.05;0.05;;;;;;;16.99;63.28;102472.69;5035335;28;20029;-96
2021/09/03 01:53:29;;;;;;;0.10;0.10;;;;;;;17.02;62.21;102472.59;5034959;28;20079;-95
2021/09/03 01:55:56;;;;;;;0.10;0.10;;;;;;;16.97;62.82;102478.06;5021000;28;20064;-95
2021/09/03 01:58:23;;;;;;;0.25;0.25;;;;;;;17.00;62.10;102478.91;5033717;28;20048;-94
2021/09/03 02:00:49;;;;;;;0.08;0.08;;;;;;;16.97;62.53;102479.84;5029729;28;20108;-96
2021/09/03 02:03:16;;;;;;;0.10;0.10;;;;;;;16.96;62.33;102468.28;5016561;28;20033;-96
2021/09/03 02:05:43;;;;;;;0.15;0.15;;;;;;;16.92;62.96;102477.28;5037440;28;20116;-96
2021/09/03 02:08:09;;;;;;;0.15;0.15;;;;;;;16.94;62.87;102474.56;5036086;28;20029;-95
2021/09/03 02:10:36;;;;;;;0.32;0.32;;;;;;;16.93;63.14;102462.09;5035563;28;20033;-96
2021/09/03 02:13:03;;;;;;;0.10;0.10;;;;;;;16.89;63.47;102463.91;5027153;28;20057;-94
2021/09/03 02:15:29;;;;;;;0.52;0.52;;;;;;;16.90;62.83;102457.66;5025237;28;20444;-96
2021/09/03 02:17:56;;;;;;;0.38;0.38;;;;;;;16.89;62.63;102444.31;5034303;28;20026;-93
2021/09/03 02:20:23;;;;;;;0.17;0.17;;;;;;;16.88;62.81;102455.94;5034008;28;20428;-91
2021/09/03 02:22:49;;;;;;;0.15;0.15;;;;;;;16.88;63.10;102453.25;5033972;28;20021;-94
2021/09/03 02:25:15;;;;;;;3.60;0.68;;;;;;;16.86;62.86;102455.06;5024848;28;20368;-86
2021/09/03 02:27:42;;;;;;;0.55;0.55;;;;;;;16.84;62.72;102456.91;5026508;28;20141;-95
2021/09/03 02:30:29;;;;;;;0.28;0.28;;;;;;;16.86;63.30;102457.75;5034014;28;20064;-91
2021/09/03 02:33:02;;;;;;;1.55;0.90;;;;;;;16.87;63.14;102455.03;5020511;28;20022;-95
2021/09/03 02:35:38;;;;;;;0.32;0.32;;;;;;;16.84;62.98;102454.22;5022921;28;20081;-94
2021/09/03 02:38:10;;;;;;;0.20;0.20;;;;;;;16.84;63.18;102441.72;5013918;28;20124;-94
2021/09/03 02:40:36;;;;;;;0.10;0.10;;;;;;;16.80;63.40;102440.91;5013707;28;20496;-92
2021/09/03 02:43:03;;;;;;;0.47;0.47;;;;;;;16.78;64.39;102439.16;5017344;28;20489;-96
2021/09/03 02:45:29;;;;;;;0.10;0.10;;;;;;;16.79;63.02;102440.94;5026235;28;20421;-96
2021/09/03 02:47:56;;;;;;;1.13;1.13;;;;;;;16.79;63.73;102439.13;5020102;28;20125;-94
2021/09/03 02:50:23;;;;;;;0.10;0.10;;;;;;;16.79;63.62;102430.22;5031080;28;20037;-95
2021/09/03 02:52:51;;;;;;;0.10;0.10;;;;;;;16.77;62.95;102429.38;5001921;28;20087;-94
2021/09/03 02:55:18;;;;;;;1.38;1.27;;;;;;;16.75;62.79;102432.09;5033626;28;20033;-94
2021/09/03 02:57:44;;;;;;;0.20;0.20;;;;;;;16.75;62.98;102432.09;5020140;28;20045;-94
2021/09/03 03:00:11;;;;;;;0.10;0.10;;;;;;;16.76;62.86;102435.63;5029587;28;20041;-92
2021/09/03 03:02:37;;;;;;;0.10;0.10;;;;;;;16.71;63.57;102419.69;5029023;28;20542;-95
2021/09/03 03:05:04;;;;;;;0.10;0.10;;;;;;;16.72;63.56;102417.88;5033551;28;20025;-95
2021/09/03 03:07:31;;;;;;;0.10;0.10;;;;;;;16.71;62.94;102417.00;5030620;28;20038;-93
2021/09/03 03:09:57;;;;;;;0.20;0.20;;;;;;;16.69;62.92;102413.47;5036562;28;20051;-92
2021/09/03 03:12:23;;;;;;;0.10;0.10;;;;;;;16.67;63.78;102409.94;5021124;28;20034;-94
2021/09/03 03:14:50;;;;;;;0.75;0.75;;;;;;;16.65;63.63;102414.47;5037012;28;20381;-92
2021/09/03 03:17:17;;;;;;;0.30;0.30;;;;;;;16.65;63.77;102409.09;5037190;28;20028;-93
2021/09/03 03:19:44;;;;;;;0.20;0.20;;;;;;;16.63;63.43;102401.09;5036575;28;20128;-93
2021/09/03 03:22:11;;;;;;;0.20;0.20;;;;;;;16.63;63.48;102405.56;5023597;28;20025;-94
2021/09/03 03:24:37;;;;;;;0.00;0.00;;;;;;;16.60;63.77;102405.66;5036988;28;20025;-94
2021/09/03 03:27:03;;;;;;;1.98;0.77;;;;;;;16.60;63.22;102408.31;5029899;28;20037;-94
2021/09/03 03:29:30;;;;;;;0.73;0.73;;;;;;;16.61;63.40;102402.03;5028985;28;20116;-93
2021/09/03 03:31:56;;;;;;;0.55;0.55;;;;;;;16.58;63.48;102396.75;5021857;28;20080;-94
2021/09/03 03:34:22;;;;;;;0.20;0.20;;;;;;;16.57;63.48;102395.00;5029502;28;20037;-95
2021/09/03 03:36:50;;;;;;;0.57;0.57;;;;;;;16.54;63.65;102395.06;5036893;28;20418;-96
2021/09/03 03:39:17;;;;;;;0.03;0.03;;;;;;;16.54;63.85;102405.78;5028503;28;20113;-96
2021/09/03 03:41:43;;;;;;;0.20;0.20;;;;;;;16.53;63.75;102399.53;5030225;28;20480;-96
2021/09/03 03:44:09;;;;;;;0.30;0.30;;;;;;;16.52;63.88;102394.22;5036977;28;20103;-90
2021/09/03 03:46:35;;;;;;;0.30;0.30;;;;;;;16.49;63.96;102388.00;5018199;28;20041;-95
2021/09/03 03:49:02;;;;;;;0.32;0.32;;;;;;;16.47;64.10;102389.84;5017881;28;20130;-95
2021/09/03 03:51:28;;;;;;;0.30;0.30;;;;;;;16.46;63.88;102396.09;5028492;28;20045;-95
2021/09/03 03:53:55;;;;;;;1.42;1.33;;;;;;;16.48;63.75;102386.22;5037411;28;20034;-95
2021/09/03 03:56:21;;;;;;;0.00;0.00;;;;;;;16.46;63.69;102381.81;5018995;28;20049;-95
2021/09/03 03:58:48;;;;;;;5.47;1.48;;;;;;;16.45;63.86;102388.97;5022189;28;20021;-93
2021/09/03 04:01:14;;;;;;;0.10;0.10;;;;;;;16.46;64.20;102384.50;5037111;28;20032;-94
2021/09/03 04:03:40;;;;;;;2.10;1.65;;;;;;;16.44;64.29;102379.19;5024719;28;20492;-96
2021/09/03 04:06:06;;;;;;;1.60;0.28;;;;;;;16.45;64.21;102369.38;5017492;28;20034;-93
2021/09/03 04:08:32;;;;;;;0.20;0.20;;;;;;;16.45;64.25;102372.94;5030879;28;20068;-95
2021/09/03 04:10:59;;;;;;;1.55;0.80;;;;;;;16.46;64.16;102377.38;5029061;28;20056;-96
2021/09/03 04:13:25;;;;;;;0.10;0.10;;;;;;;16.45;64.33;102380.94;5016789;28;20041;-94
2021/09/03 04:15:51;;;;;;;1.55;0.40;;;;;;;16.45;63.82;102375.59;5035149;28;20025;-96
2021/09/03 04:18:17;;;;;;;0.10;0.10;;;;;;;16.42;64.26;102386.34;5034976;28;20034;-96
2021/09/03 04:20:44;;;;;;;0.20;0.20;;;;;;;16.43;63.59;102389.94;5035726;28;20128;-93
2021/09/03 04:23:10;;;;;;;0.10;0.10;;;;;;;16.42;63.84;102386.34;5036254;28;20057;-96
2021/09/03 04:25:37;;;;;;;0.10;0.10;;;;;;;16.41;63.97;102379.25;5036935;28;20029;-92
2021/09/03 04:28:04;;;;;;;0.40;0.40;;;;;;;16.42;63.45;102380.13;5036765;28;20030;-96
2021/09/03 04:30:30;;;;;;;0.10;0.10;;;;;;;16.41;63.80;102379.25;5035316;28;20487;-96
2021/09/03 04:32:56;;;;;;;0.10;0.10;;;;;;;16.37;64.23;102372.19;5035667;28;20056;-96
2021/09/03 04:35:22;;;;;;;0.15;0.15;;;;;;;16.39;64.03;102375.72;5036144;28;20112;-96
2021/09/03 04:37:51;;;;;;;1.10;1.10;;;;;;;16.38;63.46;102379.31;5035978;28;20366;-95
2021/09/03 04:40:19;;;;;;;0.20;0.20;;;;;;;16.37;63.78;102377.53;5034492;28;20033;-94
2021/09/03 04:42:45;;;;;;;0.10;0.10;;;;;;;16.37;63.99;102377.53;5023337;28;20030;-94
2021/09/03 04:45:12;;;;;;;0.10;0.10;;;;;;;16.37;64.40;102380.22;5035040;28;20029;-94
2021/09/03 04:47:39;;;;;;;0.10;0.10;;;;;;;16.35;64.28;102379.38;5033871;28;20033;-95
2021/09/03 04:50:07;;;;;;;0.30;0.30;;;;;;;16.37;64.04;102368.66;5035125;28;20376;-95
2021/09/03 04:52:34;;;;;;;0.57;0.57;;;;;;;16.33;64.20;102376.72;5018621;28;20030;-94
2021/09/03 04:55:00;;;;;;;0.32;0.32;;;;;;;16.29;64.99;102374.16;5034641;28;20476;-95
2021/09/03 04:57:26;;;;;;;0.10;0.10;;;;;;;16.35;64.41;102376.72;5035389;28;20029;-95
2021/09/03 04:59:52;;;;;;;0.10;0.10;;;;;;;16.35;64.21;102374.03;5035861;28;20071;-96
2021/09/03 05:02:18;;;;;;;0.20;0.20;;;;;;;16.35;64.34;102374.03;5034706;28;20029;-96
2021/09/03 05:04:45;;;;;;;0.10;0.10;;;;;;;16.35;64.31;102371.34;5034810;28;20374;-94
2021/09/03 05:07:11;;;;;;;0.20;0.20;;;;;;;16.36;64.08;102375.75;5034531;28;20031;-84
2021/09/03 05:09:37;;;;;;;0.10;0.10;;;;;;;16.34;64.86;102369.59;5033234;28;20072;-85
2021/09/03 05:12:04;;;;;;;2.50;0.55;;;;;;;16.37;63.96;102376.66;5033960;28;20025;-87
2021/09/03 05:14:30;;;;;;;0.10;0.10;;;;;;;16.35;63.82;102366.00;5033471;28;20060;-90
2021/09/03 05:16:57;;;;;;;0.32;0.32;;;;;;;16.37;63.84;102365.97;5033775;28;20037;-86
2021/09/03 05:19:23;;;;;;;0.10;0.10;;;;;;;16.37;64.05;102366.84;5033422;28;20120;-85
2021/09/03 05:21:49;;;;;;;0.05;0.05;;;;;;;16.38;63.83;102360.59;5034198;28;20116;-85
2021/09/03 05:24:16;;;;;;;0.05;0.05;;;;;;;16.38;64.70;102368.59;5033705;28;20113;-85
2021/09/03 05:26:42;;;;;;;0.00;0.00;;;;;;;16.40;63.91;102361.44;5033334;28;20435;-85
2021/09/03 05:29:08;;;;;;;0.20;0.20;;;;;;;16.41;63.62;102362.31;5033611;28;20025;-87
2021/09/03 05:31:34;;;;;;;0.32;0.32;;;;;;;16.45;64.21;102369.38;5033656;28;20049;-85
2021/09/03 05:34:00;;;;;;;0.10;0.10;;;;;;;16.43;64.08;102369.38;5030085;28;20488;-88
2021/09/03 05:36:26;;;;;;;0.10;0.10;;;;;;;16.44;64.26;102381.00;5027082;28;20030;-94
2021/09/03 05:38:53;;;;;;;1.17;1.17;;;;;;;16.44;64.38;102373.84;5026149;28;20030;-94
2021/09/03 05:41:19;;;;;;;1.05;1.00;;;;;;;16.44;64.25;102371.16;5023016;28;20064;-95
2021/09/03 05:43:45;;;;;;;0.60;0.60;;;;;;;16.47;63.80;102375.56;5025370;28;20018;-94
2021/09/03 05:46:11;;;;;;;0.10;0.10;;;;;;;16.50;63.78;102375.50;5025294;28;20540;-93
2021/09/03 05:48:37;;;;;;;0.30;0.30;;;;;;;16.50;64.05;102380.88;5028311;28;20108;-94
2021/09/03 05:51:03;;;;;;;0.17;0.17;;;;;;;16.54;63.97;102379.00;5025088;28;20061;-95
2021/09/03 05:53:29;;;;;;;0.77;0.77;;;;;;;16.55;64.22;102378.97;5026303;28;20025;-93
2021/09/03 05:55:56;;;;;;;0.73;0.73;;;;;;;16.58;64.70;102370.00;5027305;28;20063;-93
2021/09/03 05:58:23;;;;;;;0.20;0.20;;;;;;;16.59;64.47;102371.78;5028192;28;20060;-93
2021/09/03 06:00:49;;;;;;;0.10;0.10;;;;;;;16.63;64.15;102363.63;5031031;28;20030;-93
2021/09/03 06:03:15;;;;;;;0.13;0.13;;;;;;;16.66;63.94;102368.94;5021862;28;20091;-91
2021/09/03 06:05:41;;;;;;;0.20;0.20;;;;;;;16.68;64.57;102376.91;5032334;28;20049;-94
2021/09/03 06:08:08;;;;;;;0.47;0.47;;;;;;;16.68;65.04;102371.56;5035816;28;20495;-95
2021/09/03 06:10:34;;;;;;;0.20;0.20;;;;;;;16.75;64.72;102381.22;5035516;28;20045;-96
2021/09/03 06:13:02;;;;;;;0.30;0.30;;;;;;;16.77;65.00;102376.72;5036364;28;20076;-96
2021/09/03 06:15:29;;;;;;;0.05;0.05;;;;;;;16.85;64.22;102372.97;5036758;28;20044;-96
2021/09/03 06:17:57;;;;;;;0.73;0.73;;;;;;;16.89;64.08;102374.69;5036444;28;20499;-93
2021/09/03 06:20:26;;;;;;;0.20;0.20;;;;;;;16.96;63.74;102371.00;5039286;28;20042;-96
2021/09/03 06:22:52;;;;;;;1.13;1.13;;;;;;;16.97;64.63;102372.75;5041361;28;20037;-96
2021/09/03 06:25:19;;;;;;;0.10;0.10;;;;;;;17.03;64.35;102364.56;5041463;28;20029;-96
2021/09/03 06:27:45;;;;;;;0.00;0.00;;;;;;;17.08;64.26;102361.81;5040431;28;20071;-87
2021/09/03 06:30:16;;;;;;;0.03;0.03;;;;;;;17.12;64.29;102367.06;5038694;28;20029;-96
2021/09/03 06:32:42;;;;;;;2.65;0.98;;;;;;;17.18;64.37;102359.78;5037349;28;20041;-96
2021/09/03 06:35:09;;;;;;;0.00;0.00;;;;;;;17.21;64.17;102365.97;5041232;28;20084;-95
2021/09/03 06:37:36;;;;;;;0.10;0.10;;;;;;;17.22;64.66;102366.84;5034576;28;20025;-91
2021/09/03 06:40:03;;;;;;;0.20;0.20;;;;;;;17.28;64.26;102372.03;5032916;28;20048;-90
2021/09/03 06:42:30;;;;;;;0.10;0.10;;;;;;;17.31;63.92;102377.34;5036833;28;20029;-90
2021/09/03 06:44:59;;;;;;;0.10;0.10;;;;;;;17.39;64.11;102375.34;5036065;28;20473;-90
2021/09/03 06:47:26;;;;;;;0.00;0.00;;;;;;;17.45;64.08;102375.19;5036648;28;20037;-90
2021/09/03 06:49:52;;;;;;;0.05;0.05;;;;;;;17.46;64.64;102374.28;5036453;28;20033;-90
2021/09/03 06:52:28;;;;;;;0.40;0.40;;;;;;;17.57;64.05;102378.50;5036050;28;20488;-90
2021/09/03 06:54:56;;;;;;;0.28;0.28;;;;;;;17.66;63.96;102375.59;5036671;28;20087;-91
2021/09/03 06:57:22;;;;;;;1.02;1.02;;;;;;;17.67;64.33;102377.34;5036678;28;20029;-91
2021/09/03 06:59:51;;;;;;;0.10;0.10;;;;;;;17.71;64.67;102373.66;5037372;28;20033;-88
2021/09/03 07:02:17;;;;;;;1.00;1.00;;;;;;;17.81;64.13;102365.38;5036296;28;20038;-91
2021/09/03 07:04:44;;;;;;;0.13;0.13;;;;;;;17.82;64.62;102370.72;5036782;28;20030;-92
2021/09/03 07:07:10;;;;;;;0.10;0.10;;;;;;;17.94;64.06;102361.50;5035050;28;20022;-91
2021/09/03 07:09:36;;;;;;;0.13;0.13;;;;;;;17.98;64.29;102356.94;5035983;28;20037;-91
2021/09/03 07:12:03;;;;;;;0.13;0.13;;;;;;;18.06;64.26;102366.53;5036267;28;20164;-91
2021/09/03 07:14:29;;;;;;;2.63;0.90;;;;;;;18.09;64.05;102369.13;5036962;28;20461;-90
2021/09/03 07:16:55;;;;;;;1.90;1.73;;;;;;;18.21;63.84;102361.66;5036235;28;20033;-90
2021/09/03 07:19:21;;;;;;;0.55;0.55;;;;;;;18.27;63.89;102364.19;5036682;28;20052;-90
2021/09/03 07:21:48;;;;;;;8.63;1.98;;;;;;;18.31;64.30;102365.84;5035831;28;20108;-92
2021/09/03 07:24:14;;;;;;;0.25;0.25;;;;;;;18.41;64.24;102361.97;5037728;28;20021;-90
2021/09/03 07:26:40;;;;;;;0.10;0.10;;;;;;;18.50;63.66;102358.13;5036166;28;20030;-88
2021/09/03 07:29:06;;;;;;;0.10;0.10;;;;;;;18.57;63.53;102361.53;5035987;28;20427;-89
2021/09/03 07:31:33;;;;;;;0.45;0.45;;;;;;;18.62;64.03;102358.69;5035821;28;20111;-90
2021/09/03 07:34:01;;;;;;;0.52;0.52;;;;;;;18.71;63.50;102362.00;5035861;28;20029;-87
2021/09/03 07:36:27;;;;;;;0.35;0.35;;;;;;;18.76;63.52;102356.50;5035925;28;20112;-89
2021/09/03 07:38:53;;;;;;;0.10;0.10;;;;;;;18.85;63.41;102355.34;5035735;28;20605;-90
2021/09/03 07:41:22;;;;;;;0.65;0.65;;;;;;;18.91;63.55;102350.66;5035822;28;20041;-90
2021/09/03 07:43:48;;;;;;;0.93;0.93;;;;;;;19.00;63.24;102348.63;5035961;28;20075;-89
2021/09/03 07:46:14;;;;;;;0.10;0.10;;;;;;;19.10;63.05;102350.09;5036201;28;20029;-90
2021/09/03 07:48:40;;;;;;;0.20;0.20;;;;;;;19.18;63.88;102347.19;5033436;28;20128;-90
2021/09/03 07:51:06;;;;;;;0.65;0.65;;;;;;;19.29;63.11;102344.13;5034782;28;20026;-90
2021/09/03 07:53:32;;;;;;;0.40;0.40;;;;;;;19.33;63.34;102346.66;5032796;28;20033;-90
2021/09/03 07:56:00;;;;;;;0.60;0.60;;;;;;;19.43;63.11;102346.34;5033934;28;20113;-89
2021/09/03 07:58:26;;;;;;;0.20;0.20;;;;;;;19.54;62.64;102338.84;5034007;28;20060;-90
2021/09/03 08:00:52;;;;;;;0.43;0.43;;;;;;;19.61;62.57;102340.34;5035712;28;20033;-91
2021/09/03 08:03:18;;;;;;;2.78;1.40;;;;;;;19.70;62.54;102347.22;5035294;28;20132;-90
2021/09/03 08:05:44;;;;;;;0.52;0.52;;;;;;;19.75;62.57;102339.00;5035561;28;20079;-90
2021/09/03 08:08:11;;;;;;;0.43;0.43;;;;;;;19.85;62.31;102338.66;5035349;28;20167;-91
2021/09/03 08:10:37;;;;;;;0.85;0.85;;;;;;;19.94;62.23;102337.47;5034061;28;20033;-92
2021/09/03 08:13:05;;;;;;;0.43;0.43;;;;;;;20.02;62.19;102340.75;5035510;28;20075;-90
2021/09/03 08:15:33;;;;;;;0.10;0.10;;;;;;;20.16;61.71;102333.97;5035481;28;20030;-90
2021/09/03 08:17:59;;;;;;;0.13;0.13;;;;;;;20.21;61.70;102337.38;5035887;28;20037;-90
2021/09/03 08:20:26;;;;;;;0.35;0.35;;;;;;;20.32;61.62;102335.16;5035063;28;20026;-91
2021/09/03 08:22:52;;;;;;;0.45;0.45;;;;;;;20.43;61.47;102333.91;5035070;28;20021;-89
2021/09/03 08:25:20;;;;;;;0.25;0.25;;;;;;;20.55;61.20;102330.75;5035467;28;20021;-90
2021/09/03 08:27:48;;;;;;;0.20;0.20;;;;;;;20.65;61.09;102334.84;5033793;28;20435;-91
2021/09/03 08:30:14;;;;;;;0.15;0.15;;;;;;;20.76;61.13;102333.56;5034577;28;20057;-91
2021/09/03 08:32:43;;;;;;;0.20;0.20;;;;;;;20.85;60.77;102330.53;5034671;28;20101;-91
2021/09/03 08:35:10;;;;;;;2.38;2.17;;;;;;;20.89;59.86;102329.44;5035387;28;20395;-91
2021/09/03 08:37:36;;;;;;;0.10;0.10;;;;;;;21.04;60.27;102335.16;5031713;28;20385;-90
2021/09/03 08:40:03;;;;;;;0.90;0.90;;;;;;;21.10;61.00;102335.78;5023421;28;20037;-90
2021/09/03 08:42:30;;;;;;;0.13;0.13;;;;;;;21.20;60.40;102330.91;5035237;28;20133;-89
2021/09/03 08:44:57;;;;;;;0.95;0.57;;;;;;;21.37;60.04;102332.91;5034203;28;20103;-89
2021/09/03 08:47:23;;;;;;;0.20;0.20;;;;;;;21.47;59.89;102326.16;5024034;28;20037;-91
2021/09/03 08:49:50;;;;;;;1.00;1.00;;;;;;;21.57;59.35;102323.09;5023749;28;20465;-88
2021/09/03 08:52:18;;;;;;;0.10;0.10;;;;;;;21.71;59.08;102328.78;5026055;28;20049;-89
2021/09/03 08:54:45;;;;;;;0.35;0.35;;;;;;;21.81;59.23;102330.13;5026143;28;20595;-86
2021/09/03 08:57:13;;;;;;;1.45;0.43;;;;;;;21.91;59.09;102327.91;5025894;28;20053;-85
2021/09/03 08:59:41;;;;;;;0.60;0.60;;;;;;;22.00;58.29;102326.63;5027795;28;20056;-90
2021/09/03 09:02:10;;;;;;;0.30;0.30;;;;;;;22.03;58.70;102320.22;5021711;28;20125;-91
2021/09/03 09:04:45;;;;;;;0.60;0.60;;;;;;;22.20;58.30;102322.16;5022878;28;20030;-85
2021/09/03 09:07:12;;;;;;;0.30;0.30;;;;;;;22.26;58.38;102317.34;5023402;28;20083;-90
2021/09/03 09:09:41;;;;;;;0.20;0.20;;;;;;;22.33;57.62;102327.84;5023798;28;20464;-85
2021/09/03 09:12:12;;;;;;;0.10;0.10;;;;;;;22.37;57.87;102327.69;5032980;28;20036;-87
2021/09/03 09:15:01;;;;;;;2.10;0.68;;;;;;;22.50;57.34;102330.66;5033926;28;20036;-89
2021/09/03 09:17:29;;;;;;;0.63;0.63;;;;;;;22.47;57.08;102328.13;5034016;28;20033;-91
2021/09/03 09:19:55;;;;;;;0.95;0.95;;;;;;;22.58;57.21;102331.19;5034060;28;20392;-90
2021/09/03 09:22:21;;;;;;;0.90;0.85;;;;;;;22.70;57.30;102334.25;5034460;28;20029;-91
2021/09/03 09:24:48;;;;;;;0.25;0.25;;;;;;;22.84;56.39;102336.31;5034696;28;20109;-90
2021/09/03 09:27:25;;;;;;;0.50;0.47;;;;;;;23.09;56.41;102326.03;5034174;28;20120;-91
2021/09/03 09:29:52;;;;;;;0.17;0.17;;;;;;;22.99;55.35;102326.56;5034419;28;20025;-93
2021/09/03 09:32:19;;;;;;;0.10;0.10;;;;;;;23.11;55.46;102325.97;5035442;28;20021;-92
2021/09/03 09:34:47;;;;;;;0.20;0.20;;;;;;;23.14;55.37;102325.81;5034380;28;20033;-91
2021/09/03 09:37:17;;;;;;;0.85;0.85;;;;;;;23.24;55.39;102320.84;5034767;28;20025;-92
2021/09/03 09:42:32;;;;;;;1.15;1.08;;;;;;;23.42;55.22;102327.16;5153134;27;20386;-94
2021/09/03 09:45:13;;;;;;;2.15;1.13;;;;;;;23.53;54.81;102321.22;5132234;27;20027;-92
2021/09/03 09:47:42;;;;;;;0.57;0.57;;;;;;;23.61;54.52;102320.81;5125573;27;20036;-88
2021/09/03 09:50:31;;;;;;;0.65;0.65;;;;;;;23.75;53.21;102321.84;5111994;28;20028;-94
2021/09/03 09:53:08;;;;;;;0.20;0.20;;;;;;;23.82;54.18;102322.38;5111632;28;20082;-93
2021/09/03 09:55:35;;;;;;;0.17;0.17;;;;;;;23.92;54.30;102322.81;5111963;28;20148;-94
2021/09/03 09:58:03;;;;;;;0.20;0.20;;;;;;;23.93;54.29;102312.88;5112198;28;20106;-92
2021/09/03 10:00:32;;;;;;;0.10;0.10;;;;;;;24.02;52.51;102318.63;5112381;28;20038;-92
2021/09/03 10:03:00;;;;;;;0.10;0.10;;;;;;;24.17;54.16;102310.66;5111890;28;20490;-94
2021/09/03 10:05:26;;;;;;;0.10;0.10;;;;;;;24.26;53.27;102314.69;5111219;28;20028;-94
2021/09/03 10:07:53;;;;;;;0.38;0.38;;;;;;;24.37;53.69;102313.16;5111922;28;20028;-95
2021/09/03 10:10:19;;;;;;;0.47;0.47;;;;;;;24.40;52.06;102306.69;5111126;28;20024;-94
2021/09/03 10:12:45;;;;;;;0.22;0.22;;;;;;;24.52;52.89;102311.44;5110609;28;20038;-87
2021/09/03 10:15:12;;;;;;;0.20;0.20;;;;;;;24.66;52.53;102299.84;5092528;28;20113;-86
2021/09/03 10:17:40;;;;;;;0.52;0.52;;;;;;;24.66;52.18;102302.56;5110552;28;20035;-85
2021/09/03 10:20:07;;;;;;;0.25;0.25;;;;;;;24.74;51.78;102287.69;5110566;28;20114;-85
2021/09/03 10:22:49;;;;;;;0.17;0.17;;;;;;;24.79;51.42;102296.44;5110366;28;20020;-88
2021/09/03 10:25:15;;;;;;;;;;;;;;;24.90;50.44;102293.97;5112388;28;20031;-89
2021/09/03 10:28:01;;;;;;;0.30;0.30;;;;;;;24.81;51.21;102291.78;5111084;28;19989;-84
2021/09/03 10:30:27;;;;;;;2.58;1.83;;;;;;;24.84;50.76;102284.34;5111122;28;20036;-86
2021/09/03 10:33:10;;;;;;;0.10;0.10;;;;;;;24.97;51.38;102289.06;5110982;28;20030;-90
2021/09/03 10:35:37;;;;;;;0.82;0.82;;;;;;;24.98;51.57;102291.66;5113072;28;20066;-82
2021/09/03 10:38:28;;;;;;;0.30;0.30;;;;;;;25.16;50.41;102284.31;5090018;28;20046;-86
2021/09/03 10:40:56;;;;;;;0.10;0.10;;;;;;;25.20;50.80;102280.44;5106373;28;20039;-88
2021/09/03 10:43:44;;;;;;;0.80;0.65;;;;;;;25.33;49.67;102274.28;5094509;28;20352;-89
2021/09/03 10:46:13;;;;;;;1.00;0.85;;;;;;;25.26;50.64;102278.31;5091329;28;20032;-91
2021/09/03 10:48:47;;;;;;;2.67;0.70;;;;;;;25.30;49.91;102275.34;5109728;28;20032;-93
2021/09/03 10:51:31;;;;;;;2.85;1.05;;;;;;;25.44;49.98;102269.09;5109992;28;20039;-89
2021/09/03 10:53:59;;;;;;;1.27;1.13;;;;;;;25.60;49.52;102270.91;5094484;28;20467;-84
2021/09/03 10:56:30;;;;;;;1.17;0.90;;;;;;;25.65;49.89;102263.34;5096909;28;20028;-85
2021/09/03 10:59:06;;;;;;;0.40;0.40;;;;;;;25.79;47.77;102262.50;5098887;28;20035;-84
2021/09/03 11:01:36;;;;;;;0.20;0.20;;;;;;;25.67;48.99;102259.56;5095461;28;20443;-91
2021/09/03 11:04:15;;;;;;;0.10;0.10;;;;;;;25.74;48.78;102245.63;5088741;28;20093;-88
2021/09/03 11:06:50;;;;;;;2.78;1.65;;;;;;;25.87;48.81;102249.31;5096604;28;20024;-87
2021/09/03 11:12:09;;;;;;;5.22;1.70;;;;;;;25.99;48.79;102244.94;5070327;28;20520;-86
2021/09/03 11:14:38;;;;;;;0.10;0.10;;;;;;;26.02;48.72;102235.72;5050046;28;20091;-83
2021/09/03 11:20:12;;;;;;;0.32;0.32;;;;;;;26.10;47.85;102231.56;5056183;28;20427;-83
2021/09/03 11:22:44;;;;;;;0.35;0.35;;;;;;;26.11;47.14;102227.03;5057483;28;20049;-83
2021/09/03 11:25:11;;;;;;;;;;;;;;;26.31;47.27;102223.03;5038232;28;20534;-85
2021/09/03 11:27:41;;;;;;;4.07;1.90;;;;;;;26.23;48.10;102226.25;5049801;28;20342;-84
2021/09/03 11:30:13;;;;;;;0.80;0.63;;;;;;;26.34;47.35;102227.38;5051945;28;20033;-87
2021/09/03 11:32:39;;;;;;;0.55;0.55;;;;;;;26.32;47.71;102228.34;5044341;28;20556;-86
2021/09/03 11:37:50;;;;;;;1.98;1.08;;;;;;;26.55;47.77;102225.09;5052184;27;20432;-86
2021/09/03 11:40:26;;;;;;;0.20;0.20;;;;;;;26.68;47.44;102219.72;5050393;28;20022;-85